Terminal Aerodrome Forecast
Issued by NWS Sterling, VA

Current Version | Previous Version | Graphics & Text | Print | Product List | Glossary On
Versions: 1 2 3 4 5 6 7 8 9 10 11
000
FTUS41 KLWX 190500
TAFMRB
TAF
KMRB 190538Z 1906/2006 29006KT P6SM BKN040 OVC100
     FM191400 30009KT P6SM FEW040 SCT090
     FM200000 32005KT P6SM FEW030 SCT250=

USA.gov is the U.S. government's official web portal to all federal, state and local government web resources and services.